createdAt,value
2019-03-17T00:01:12.866Z,5.10
2019-03-17T00:03:39.824Z,6.80
2019-03-17T00:06:07.909Z,4.42
2019-03-17T00:08:35.014Z,7.80
2019-03-17T00:11:02.376Z,4.85
2019-03-17T00:13:29.342Z,6.67
2019-03-17T00:15:56.384Z,5.85
2019-03-17T00:18:23.423Z,3.92
2019-03-17T00:20:50.223Z,4.58
2019-03-17T00:23:17.164Z,4.65
2019-03-17T00:25:45.978Z,4.42
2019-03-17T00:28:12.810Z,7.28
2019-03-17T00:30:39.758Z,5.12
2019-03-17T00:33:06.643Z,4.42
2019-03-17T00:35:33.436Z,3.15
2019-03-17T00:38:00.656Z,3.67
2019-03-17T00:40:28.078Z,5.53
2019-03-17T00:42:55.334Z,5.10
2019-03-17T00:45:22.453Z,3.47
2019-03-17T00:47:49.559Z,3.37
2019-03-17T00:50:16.550Z,4.95
2019-03-17T00:52:43.898Z,5.05
2019-03-17T00:55:10.998Z,3.00
2019-03-17T00:57:37.762Z,3.27
2019-03-17T01:00:12.469Z,3.40
2019-03-17T01:02:40.007Z,2.80
2019-03-17T01:05:07.733Z,2.45
2019-03-17T01:07:34.959Z,8.78
2019-03-17T01:10:02.593Z,2.58
2019-03-17T01:12:29.866Z,2.87
2019-03-17T01:14:56.943Z,3.95
2019-03-17T01:17:23.704Z,2.72
2019-03-17T01:19:50.467Z,2.52
2019-03-17T01:22:17.662Z,3.35
2019-03-17T01:24:44.604Z,3.17
2019-03-17T01:27:11.757Z,3.45
2019-03-17T01:29:38.525Z,4.33
2019-03-17T01:32:05.343Z,3.27
2019-03-17T01:34:32.123Z,2.72
2019-03-17T01:36:58.936Z,4.42
2019-03-17T01:39:26.020Z,2.58
2019-03-17T01:41:52.867Z,3.85
2019-03-17T01:44:19.733Z,7.70
2019-03-17T01:46:46.552Z,4.45
2019-03-17T01:49:13.330Z,3.60
2019-03-17T01:51:42.514Z,3.45
2019-03-17T01:54:09.478Z,4.47
2019-03-17T01:56:36.766Z,4.00
2019-03-17T01:59:03.661Z,3.00
2019-03-17T02:01:30.474Z,4.10
2019-03-17T02:03:57.256Z,4.45
2019-03-17T02:06:24.143Z,5.20
2019-03-17T02:08:50.926Z,3.52
2019-03-17T02:11:17.827Z,6.40
2019-03-17T02:13:44.986Z,2.67
2019-03-17T02:16:11.788Z,6.10
2019-03-17T02:18:38.624Z,2.75
2019-03-17T02:21:05.552Z,2.85
2019-03-17T02:23:32.530Z,4.55
2019-03-17T02:25:59.702Z,4.92
2019-03-17T02:28:26.731Z,2.45
2019-03-17T02:30:53.611Z,4.28
2019-03-17T02:33:20.659Z,3.15
2019-03-17T02:35:47.447Z,3.98
2019-03-17T02:38:14.445Z,4.00
2019-03-17T02:40:41.343Z,3.40
2019-03-17T02:43:08.694Z,1.62
2019-03-17T02:45:35.477Z,1.50
2019-03-17T02:48:02.487Z,1.77
2019-03-17T02:50:31.774Z,2.67
2019-03-17T02:52:58.637Z,2.90
2019-03-17T02:55:25.838Z,2.05
2019-03-17T02:57:52.592Z,1.85
2019-03-17T03:00:19.536Z,3.30
2019-03-17T03:02:46.423Z,2.22
2019-03-17T03:05:13.256Z,2.40
2019-03-17T03:07:42.121Z,1.82
2019-03-17T03:10:09.966Z,2.60
2019-03-17T03:12:37.100Z,3.10
2019-03-17T03:15:07.443Z,1.90
2019-03-17T03:17:34.185Z,3.37
2019-03-17T03:20:01.209Z,1.50
2019-03-17T03:22:28.483Z,2.35
2019-03-17T03:24:55.255Z,1.90
2019-03-17T03:27:25.427Z,1.92
2019-03-17T03:29:52.719Z,1.90
2019-03-17T03:32:19.601Z,2.05
2019-03-17T03:34:46.911Z,2.37
2019-03-17T03:37:14.180Z,2.60
2019-03-17T03:39:41.165Z,1.60
2019-03-17T03:42:08.025Z,1.42
2019-03-17T03:44:34.907Z,2.37
2019-03-17T03:47:01.928Z,2.22
2019-03-17T03:49:29.051Z,1.75
2019-03-17T03:51:56.702Z,1.72
2019-03-17T03:54:23.832Z,2.45
2019-03-17T03:56:52.142Z,3.05
2019-03-17T03:59:19.096Z,2.95
2019-03-17T04:01:46.376Z,2.42
2019-03-17T04:04:13.710Z,4.37
2019-03-17T04:06:41.100Z,3.37
2019-03-17T04:09:07.987Z,2.37
2019-03-17T04:11:34.726Z,1.40
2019-03-17T04:14:03.726Z,2.15
2019-03-17T04:16:30.477Z,1.55
2019-03-17T04:18:58.039Z,1.82
2019-03-17T04:21:25.528Z,2.20
2019-03-17T04:23:52.463Z,1.47
2019-03-17T04:26:19.420Z,1.40
2019-03-17T04:28:46.976Z,2.10
2019-03-17T04:31:14.843Z,2.30
2019-03-17T04:33:42.211Z,3.77
2019-03-17T04:36:09.003Z,1.92
2019-03-17T04:38:36.087Z,3.62
2019-03-17T04:41:03.003Z,1.60
2019-03-17T04:43:29.998Z,1.67
2019-03-17T04:45:56.908Z,2.67
2019-03-17T04:48:24.412Z,3.12
2019-03-17T04:50:51.258Z,2.45
2019-03-17T04:53:18.019Z,3.37
2019-03-17T04:55:44.818Z,4.47
2019-03-17T04:58:11.630Z,2.12
2019-03-17T05:00:38.528Z,3.40
2019-03-17T05:03:05.283Z,1.75
2019-03-17T05:05:32.056Z,2.33
2019-03-17T05:07:58.937Z,3.05
2019-03-17T05:10:26.260Z,1.92
2019-03-17T05:12:53.198Z,4.33
2019-03-17T05:15:19.976Z,3.58
2019-03-17T05:17:47.118Z,4.40
2019-03-17T05:20:13.985Z,2.65
2019-03-17T05:22:40.859Z,5.60
2019-03-17T05:25:08.214Z,2.75
2019-03-17T05:27:34.978Z,6.28
2019-03-17T05:30:04.943Z,2.02
2019-03-17T05:32:31.719Z,1.67
2019-03-17T05:34:58.965Z,2.25
2019-03-17T05:37:26.024Z,2.05
2019-03-17T05:39:53.619Z,1.85
2019-03-17T05:42:20.399Z,2.12
2019-03-17T05:44:47.380Z,4.37
2019-03-17T05:47:14.146Z,1.82
2019-03-17T05:49:40.894Z,2.58
2019-03-17T05:52:07.741Z,2.12
2019-03-17T05:54:34.490Z,4.45
2019-03-17T05:57:02.253Z,2.52
2019-03-17T05:59:29.367Z,2.62
2019-03-17T06:01:56.938Z,1.92
2019-03-17T06:04:24.407Z,3.37
2019-03-17T06:06:51.230Z,2.02
2019-03-17T06:09:18.115Z,1.72
2019-03-17T06:11:44.979Z,2.25
2019-03-17T06:14:12.188Z,3.17
2019-03-17T06:16:39.124Z,3.00
2019-03-17T06:19:05.978Z,2.60
2019-03-17T06:21:32.864Z,4.22
2019-03-17T06:23:59.809Z,3.20
2019-03-17T06:26:26.800Z,2.30
2019-03-17T06:28:53.651Z,4.55
2019-03-17T06:31:20.433Z,4.83
2019-03-17T06:33:47.343Z,4.50
2019-03-17T06:36:14.283Z,7.53
2019-03-17T06:38:41.377Z,3.00
2019-03-17T06:41:08.650Z,6.15
2019-03-17T06:43:35.645Z,3.67
2019-03-17T06:46:02.482Z,3.70
2019-03-17T06:48:29.493Z,3.77
2019-03-17T06:50:56.434Z,4.67
2019-03-17T06:53:23.406Z,2.85
2019-03-17T06:55:50.285Z,2.90
2019-03-17T06:58:17.111Z,2.95
2019-03-17T07:00:44.471Z,2.62
2019-03-17T07:03:11.425Z,2.52
2019-03-17T07:05:38.936Z,2.33
2019-03-17T07:08:07.276Z,6.33
2019-03-17T07:10:34.273Z,3.00
2019-03-17T07:13:01.345Z,1.92
2019-03-17T07:15:28.398Z,4.80
2019-03-17T07:17:55.234Z,2.10
2019-03-17T07:20:22.102Z,3.00
2019-03-17T07:22:48.907Z,2.42
2019-03-17T07:25:15.791Z,2.22
2019-03-17T07:27:42.588Z,4.45
2019-03-17T07:30:14.506Z,3.60
2019-03-17T07:32:41.376Z,2.42
2019-03-17T07:35:08.463Z,2.67
2019-03-17T07:37:35.317Z,3.10
2019-03-17T07:40:07.193Z,2.45
2019-03-17T07:42:34.476Z,3.85
2019-03-17T07:45:01.252Z,2.90
2019-03-17T07:47:28.150Z,3.35
2019-03-17T07:49:54.930Z,2.92
2019-03-17T07:52:22.024Z,2.80
2019-03-17T07:54:49.215Z,4.22
2019-03-17T07:57:16.106Z,2.90
2019-03-17T07:59:43.526Z,4.30
2019-03-17T08:02:10.669Z,2.83
2019-03-17T08:04:42.425Z,3.83
2019-03-17T08:07:06.137Z,3.85
2019-03-17T08:09:32.891Z,10.32
2019-03-17T08:12:00.019Z,3.42
2019-03-17T08:14:27.215Z,4.12
2019-03-17T08:16:53.972Z,3.95
2019-03-17T08:19:20.869Z,1.90
2019-03-17T08:21:48.191Z,3.50
2019-03-17T08:24:15.127Z,2.27
2019-03-17T08:26:42.116Z,3.30
2019-03-17T08:29:09.485Z,4.35
2019-03-17T08:31:36.312Z,1.72
2019-03-17T08:34:03.302Z,3.98
2019-03-17T08:36:30.060Z,2.40
2019-03-17T08:38:56.900Z,3.67
2019-03-17T08:41:23.728Z,1.55
2019-03-17T08:43:54.493Z,3.33
2019-03-17T08:46:20.953Z,3.85
2019-03-17T08:48:47.843Z,1.85
2019-03-17T08:51:14.683Z,2.05
2019-03-17T08:53:41.715Z,4.55
2019-03-17T08:56:08.456Z,7.30
2019-03-17T08:58:35.642Z,6.55
2019-03-17T09:01:02.770Z,3.50
2019-03-17T09:03:29.682Z,3.33
2019-03-17T09:05:56.587Z,5.35
2019-03-17T09:08:34.158Z,4.80
2019-03-17T09:10:52.859Z,5.90
2019-03-17T09:13:19.907Z,8.13
2019-03-17T09:15:47.508Z,5.12
2019-03-17T09:18:14.788Z,4.35
2019-03-17T09:20:41.895Z,4.97
2019-03-17T09:23:08.714Z,3.62
2019-03-17T09:25:35.583Z,5.67
2019-03-17T09:28:02.602Z,3.42
2019-03-17T09:30:29.476Z,2.55
2019-03-17T09:32:56.623Z,5.97
2019-03-17T09:35:23.992Z,4.50
2019-03-17T09:37:50.763Z,4.50
2019-03-17T09:40:19.188Z,5.70
2019-03-17T09:42:45.958Z,5.40
2019-03-17T09:45:14.709Z,6.53
2019-03-17T09:47:44.945Z,10.13
2019-03-17T09:50:14.114Z,8.70
2019-03-17T09:52:40.927Z,7.33
2019-03-17T09:55:08.670Z,7.22
2019-03-17T09:57:35.936Z,17.05
2019-03-17T10:00:13.480Z,6.87
2019-03-17T10:02:40.697Z,14.35
2019-03-17T10:05:09.106Z,11.28
2019-03-17T10:07:36.133Z,8.60
2019-03-17T10:10:12.731Z,14.85
2019-03-17T10:12:40.068Z,8.43
2019-03-17T10:15:11.397Z,8.45
2019-03-17T10:17:38.438Z,14.55
2019-03-17T10:20:12.880Z,10.88
2019-03-17T10:22:40.029Z,11.50
2019-03-17T10:25:09.617Z,7.85
2019-03-17T10:27:36.524Z,11.40
2019-03-17T10:30:14.760Z,10.90
2019-03-17T10:32:41.876Z,12.25
2019-03-17T10:35:08.925Z,10.72
2019-03-17T10:37:36.207Z,11.00
2019-03-17T10:40:13.527Z,7.78
2019-03-17T10:42:40.426Z,8.80
2019-03-17T10:45:09.924Z,10.70
2019-03-17T10:47:37.319Z,9.53
2019-03-17T10:50:13.031Z,6.80
2019-03-17T10:52:40.180Z,11.15
2019-03-17T10:55:08.963Z,6.42
2019-03-17T10:57:36.456Z,5.65
2019-03-17T11:00:21.379Z,8.90
2019-03-17T11:02:48.410Z,11.48
2019-03-17T11:05:15.728Z,10.08
2019-03-17T11:07:43.147Z,13.08
2019-03-17T11:10:13.542Z,7.75
2019-03-17T11:12:40.549Z,13.58
2019-03-17T11:15:19.001Z,8.05
2019-03-17T11:17:45.855Z,11.97
2019-03-17T11:20:13.746Z,6.83
2019-03-17T11:22:41.047Z,6.78
2019-03-17T11:25:15.291Z,9.55
2019-03-17T11:27:43.822Z,11.10
2019-03-17T11:30:16.240Z,9.88
2019-03-17T11:32:43.095Z,11.63
2019-03-17T11:35:10.268Z,8.73
2019-03-17T11:37:37.348Z,8.15
2019-03-17T11:40:12.956Z,10.13
2019-03-17T11:42:39.777Z,10.82
2019-03-17T11:45:14.336Z,10.10
2019-03-17T11:47:42.615Z,10.98
2019-03-17T11:50:15.856Z,4.92
2019-03-17T11:52:42.964Z,12.07
2019-03-17T11:55:11.024Z,8.18
2019-03-17T11:57:38.434Z,7.28
2019-03-17T12:00:16.038Z,9.00
2019-03-17T12:02:42.854Z,8.25
2019-03-17T12:05:10.215Z,9.20
2019-03-17T12:07:37.083Z,7.37
2019-03-17T12:10:16.889Z,9.95
2019-03-17T12:12:43.986Z,10.78
2019-03-17T12:15:26.781Z,9.60
2019-03-17T12:17:54.035Z,10.48
2019-03-17T12:20:21.114Z,9.53
2019-03-17T12:22:49.889Z,11.33
2019-03-17T12:25:18.059Z,6.33
2019-03-17T12:27:45.117Z,8.25
2019-03-17T12:30:20.481Z,5.78
2019-03-17T12:32:48.872Z,4.53
2019-03-17T12:35:16.254Z,8.20
2019-03-17T12:37:45.329Z,5.28
2019-03-17T12:40:12.547Z,5.40
2019-03-17T12:42:39.620Z,6.08
2019-03-17T12:45:08.811Z,5.87
2019-03-17T12:47:37.387Z,6.50
2019-03-17T12:50:12.757Z,4.20
2019-03-17T12:52:40.214Z,3.85
2019-03-17T12:55:07.857Z,6.25
2019-03-17T12:57:34.815Z,3.05
2019-03-17T13:00:10.463Z,2.60
2019-03-17T13:02:40.279Z,2.87
2019-03-17T13:05:08.533Z,1.27
2019-03-17T13:07:35.547Z,1.32
2019-03-17T13:10:15.873Z,0.98
2019-03-17T13:12:41.419Z,2.35
2019-03-17T13:15:10.978Z,2.55
2019-03-17T13:17:37.738Z,1.15
2019-03-17T13:20:15.766Z,1.40
2019-03-17T13:22:43.193Z,3.00
2019-03-17T13:25:11.375Z,1.47
2019-03-17T13:27:38.511Z,0.85
2019-03-17T13:30:13.570Z,6.83
2019-03-17T13:32:40.351Z,2.08
2019-03-17T13:35:09.174Z,0.98
2019-03-17T13:37:36.302Z,2.87
2019-03-17T13:40:28.714Z,0.78
2019-03-17T13:42:48.164Z,0.65
2019-03-17T13:45:15.612Z,3.20
2019-03-17T13:47:42.590Z,1.80
2019-03-17T13:50:16.219Z,2.95
2019-03-17T13:55:10.236Z,1.20
2019-03-17T13:57:38.521Z,2.62
2019-03-17T14:00:10.536Z,1.25
2019-03-17T14:02:37.709Z,1.20
2019-03-17T14:05:04.877Z,2.98
2019-03-17T14:07:31.778Z,10.28
2019-03-17T14:09:58.737Z,1.00
2019-03-17T14:12:26.072Z,5.78
2019-03-17T14:14:52.956Z,2.52
2019-03-17T14:17:20.068Z,1.92
2019-03-17T14:19:47.229Z,1.50
2019-03-17T14:22:17.131Z,1.00
2019-03-17T14:24:43.944Z,1.52
2019-03-17T14:27:10.800Z,1.02
2019-03-17T14:29:37.906Z,0.82
2019-03-17T14:32:05.029Z,0.93
2019-03-17T14:34:32.219Z,1.95
2019-03-17T14:36:59.214Z,1.30
2019-03-17T14:39:26.387Z,1.87
2019-03-17T14:41:53.296Z,1.47
2019-03-17T14:44:20.221Z,1.82
2019-03-17T14:46:47.360Z,1.60
2019-03-17T14:49:14.119Z,0.62
2019-03-17T14:51:40.868Z,1.22
2019-03-17T14:54:07.838Z,1.15
2019-03-17T14:56:34.744Z,1.32
2019-03-17T14:59:03.786Z,0.70
2019-03-17T15:01:30.684Z,1.70
2019-03-17T15:03:58.078Z,1.85
2019-03-17T15:06:25.195Z,1.65
2019-03-17T15:08:51.996Z,2.45
2019-03-17T15:11:18.799Z,3.47
2019-03-17T15:13:46.168Z,2.27
2019-03-17T15:16:13.183Z,1.40
2019-03-17T15:18:40.253Z,4.28
2019-03-17T15:21:07.523Z,2.95
2019-03-17T15:23:34.530Z,2.22
2019-03-17T15:26:01.296Z,2.22
2019-03-17T15:28:28.889Z,5.25
2019-03-17T15:31:10.275Z,2.40
2019-03-17T15:33:24.601Z,1.87
2019-03-17T15:35:51.359Z,2.70
2019-03-17T15:38:18.219Z,2.47
2019-03-17T15:40:44.973Z,1.30
2019-03-17T15:43:11.837Z,2.42
2019-03-17T15:45:39.100Z,2.83
2019-03-17T15:48:05.993Z,3.02
2019-03-17T15:50:33.038Z,3.17
2019-03-17T15:53:00.322Z,1.72
2019-03-17T15:55:30.213Z,3.25
2019-03-17T15:57:57.087Z,7.95
2019-03-17T16:00:26.626Z,2.50
2019-03-17T16:02:53.998Z,2.60
2019-03-17T16:05:22.031Z,1.42
2019-03-17T16:07:48.997Z,2.70
2019-03-17T16:10:21.062Z,4.12
2019-03-17T16:12:51.795Z,3.50
2019-03-17T16:15:18.897Z,4.30
2019-03-17T16:17:46.363Z,4.72
2019-03-17T16:20:22.856Z,4.42
2019-03-17T16:22:49.729Z,5.78
2019-03-17T16:25:30.155Z,3.95
2019-03-17T16:27:57.200Z,3.77
2019-03-17T16:30:29.319Z,6.08
2019-03-17T16:32:56.315Z,6.30
2019-03-17T16:35:25.839Z,3.47
2019-03-17T16:37:55.820Z,4.00
2019-03-17T16:40:28.549Z,2.67
2019-03-17T16:42:55.534Z,5.05
2019-03-17T16:45:22.584Z,4.42
2019-03-17T16:47:50.030Z,4.40
2019-03-17T16:50:20.711Z,3.65
2019-03-17T16:52:47.651Z,4.47
2019-03-17T16:55:15.892Z,2.25
2019-03-17T16:57:43.040Z,2.25
2019-03-17T17:00:19.598Z,3.05
2019-03-17T17:02:47.935Z,1.87
2019-03-17T17:05:17.981Z,4.05
2019-03-17T17:07:45.533Z,4.45
2019-03-17T17:10:21.107Z,4.28
2019-03-17T17:12:48.201Z,2.33
2019-03-17T17:15:30.866Z,4.40
2019-03-17T17:17:58.297Z,2.77
2019-03-17T17:20:40.101Z,1.92
2019-03-17T17:23:06.877Z,3.60
2019-03-17T17:25:34.244Z,5.53
2019-03-17T17:28:02.096Z,1.90
2019-03-17T17:30:28.985Z,2.98
2019-03-17T17:32:56.209Z,2.58
2019-03-17T17:35:23.258Z,3.33
2019-03-17T17:37:50.050Z,2.05
2019-03-17T17:40:23.485Z,2.55
2019-03-17T17:42:50.571Z,3.42
2019-03-17T17:45:24.508Z,1.80
2019-03-17T17:47:51.636Z,2.33
2019-03-17T17:50:23.589Z,30.12
2019-03-17T17:52:50.746Z,16.30
2019-03-17T17:55:17.760Z,10.93
2019-03-17T17:57:45.002Z,9.03
2019-03-17T18:00:19.497Z,3.80
2019-03-17T18:02:46.467Z,2.95
2019-03-17T18:05:13.723Z,3.70
2019-03-17T18:07:40.806Z,4.33
2019-03-17T18:10:11.761Z,4.42
2019-03-17T18:12:38.552Z,3.27
2019-03-17T18:15:14.875Z,4.50
2019-03-17T18:17:42.123Z,2.85
2019-03-17T18:20:11.928Z,2.80
2019-03-17T18:22:38.864Z,3.87
2019-03-17T18:25:17.074Z,3.15
2019-03-17T18:27:44.016Z,4.72
2019-03-17T18:30:23.903Z,5.47
2019-03-17T18:32:53.225Z,5.30
2019-03-17T18:35:20.232Z,3.33
2019-03-17T18:37:51.225Z,4.37
2019-03-17T18:40:24.598Z,4.97
2019-03-17T18:42:51.887Z,5.20
2019-03-17T18:45:29.668Z,3.15
2019-03-17T18:47:58.974Z,5.05
2019-03-17T18:50:25.818Z,3.17
2019-03-17T18:52:52.801Z,4.78
2019-03-17T18:55:19.610Z,2.65
2019-03-17T18:57:46.577Z,5.25
2019-03-17T19:00:21.566Z,4.70
2019-03-17T19:02:48.657Z,2.42
2019-03-17T19:05:19.633Z,3.87
2019-03-17T19:07:45.640Z,4.45
2019-03-17T19:10:18.741Z,2.45
2019-03-17T19:12:46.404Z,2.00
2019-03-17T19:15:19.881Z,3.35
2019-03-17T19:17:50.371Z,2.22
2019-03-17T19:20:19.314Z,3.72
2019-03-17T19:22:46.372Z,2.75
2019-03-17T19:25:17.919Z,5.75
2019-03-17T19:27:45.311Z,2.92
2019-03-17T19:30:16.238Z,4.33
2019-03-17T19:32:44.229Z,3.52
2019-03-17T19:35:11.354Z,4.83
2019-03-17T19:37:41.809Z,7.55
2019-03-17T19:40:16.104Z,16.70
2019-03-17T19:42:44.073Z,4.90
2019-03-17T19:45:11.555Z,3.62
2019-03-17T19:47:39.169Z,2.62
2019-03-17T19:50:15.183Z,5.00
2019-03-17T19:52:42.290Z,2.92
2019-03-17T19:55:10.585Z,3.22
2019-03-17T19:57:37.475Z,3.27
2019-03-17T20:00:19.278Z,1.72
2019-03-17T20:02:47.762Z,5.72
2019-03-17T20:05:15.229Z,4.53
2019-03-17T20:07:42.060Z,3.47
2019-03-17T20:10:28.379Z,2.58
2019-03-17T20:12:56.373Z,2.45
2019-03-17T20:15:23.555Z,3.17
2019-03-17T20:17:50.311Z,2.40
2019-03-17T20:20:17.315Z,3.55
2019-03-17T20:22:44.167Z,1.82
2019-03-17T20:25:11.515Z,2.25
2019-03-17T20:27:38.399Z,1.90
2019-03-17T20:30:16.324Z,2.33
2019-03-17T20:32:43.630Z,2.80
2019-03-17T20:35:12.032Z,1.52
2019-03-17T20:37:38.916Z,1.40
2019-03-17T20:40:10.458Z,1.95
2019-03-17T20:42:37.319Z,1.98
2019-03-17T20:45:07.467Z,1.77
2019-03-17T20:47:34.379Z,1.60
2019-03-17T20:50:01.877Z,2.75
2019-03-17T20:52:29.096Z,2.17
2019-03-17T20:54:56.240Z,1.40
2019-03-17T20:57:22.992Z,3.00
2019-03-17T20:59:50.485Z,4.10
2019-03-17T21:02:17.596Z,3.37
2019-03-17T21:04:44.396Z,2.22
2019-03-17T21:07:12.884Z,1.62
2019-03-17T21:09:39.868Z,3.12
2019-03-17T21:12:06.942Z,0.60
2019-03-17T21:14:33.711Z,1.45
2019-03-17T21:17:00.652Z,3.98
2019-03-17T21:19:28.092Z,2.77
2019-03-17T21:21:55.083Z,2.22
2019-03-17T21:24:21.840Z,2.70
2019-03-17T21:26:49.101Z,4.87
2019-03-17T21:29:16.074Z,2.95
2019-03-17T21:31:43.373Z,6.15
2019-03-17T21:34:10.284Z,2.47
2019-03-17T21:36:38.826Z,0.90
2019-03-17T21:39:06.448Z,3.02
2019-03-17T21:41:34.107Z,2.77
2019-03-17T21:44:00.927Z,1.37
2019-03-17T21:46:28.123Z,2.27
2019-03-17T21:48:54.875Z,2.05
2019-03-17T21:51:21.648Z,3.70
2019-03-17T21:53:48.445Z,2.10
2019-03-17T21:56:15.596Z,1.25
2019-03-17T21:58:42.399Z,2.17
2019-03-17T22:01:09.159Z,1.40
2019-03-17T22:03:35.937Z,2.20
2019-03-17T22:06:03.359Z,1.82
2019-03-17T22:08:31.434Z,3.37
2019-03-17T22:10:58.371Z,2.87
2019-03-17T22:13:25.258Z,2.83
2019-03-17T22:15:52.001Z,1.55
2019-03-17T22:18:18.766Z,3.62
2019-03-17T22:20:45.501Z,1.50
2019-03-17T22:23:12.355Z,1.42
2019-03-17T22:25:39.219Z,1.95
2019-03-17T22:28:08.505Z,1.87
2019-03-17T22:30:35.481Z,2.52
2019-03-17T22:33:02.427Z,2.20
2019-03-17T22:35:29.493Z,3.60
2019-03-17T22:37:56.786Z,4.20
2019-03-17T22:40:23.620Z,3.80
2019-03-17T22:42:50.375Z,2.75
2019-03-17T22:45:17.655Z,2.52
2019-03-17T22:47:44.827Z,3.75
2019-03-17T22:50:15.135Z,1.65
2019-03-17T22:52:42.438Z,1.42
2019-03-17T22:55:10.394Z,0.90
2019-03-17T22:57:37.160Z,2.25
2019-03-17T23:00:09.778Z,2.05
2019-03-17T23:02:36.877Z,1.20
2019-03-17T23:05:06.787Z,2.15
2019-03-17T23:07:33.648Z,4.62
2019-03-17T23:10:00.569Z,2.30
2019-03-17T23:12:27.384Z,1.15
2019-03-17T23:14:54.153Z,2.90
2019-03-17T23:17:20.905Z,2.60
2019-03-17T23:19:48.075Z,2.77
2019-03-17T23:22:14.838Z,1.67
2019-03-17T23:24:41.747Z,1.57
2019-03-17T23:27:08.745Z,2.62
2019-03-17T23:29:35.668Z,3.27
2019-03-17T23:32:03.587Z,1.92
2019-03-17T23:34:30.846Z,1.25
2019-03-17T23:36:57.760Z,2.85
2019-03-17T23:39:24.845Z,4.25
2019-03-17T23:41:51.936Z,3.35
2019-03-17T23:44:19.042Z,3.45
2019-03-17T23:46:45.981Z,2.47
2019-03-17T23:49:12.843Z,1.50
2019-03-17T23:51:39.634Z,2.17
2019-03-17T23:54:06.424Z,3.33
2019-03-17T23:56:33.589Z,2.35
2019-03-17T23:59:00.355Z,2.35
